createdAt,value
2018-08-23T00:00:41.568Z,1010.76
2018-08-23T00:01:41.551Z,1010.79
2018-08-23T00:02:41.537Z,1010.79
2018-08-23T00:03:41.634Z,1010.77
2018-08-23T00:04:41.509Z,1010.74
2018-08-23T00:05:41.495Z,1010.68
2018-08-23T00:06:41.481Z,1010.73
2018-08-23T00:07:41.477Z,1010.72
2018-08-23T00:08:41.456Z,1010.73
2018-08-23T00:09:41.455Z,1010.73
2018-08-23T00:10:41.425Z,1010.75
2018-08-23T00:11:41.421Z,1010.73
2018-08-23T00:12:41.399Z,1010.74
2018-08-23T00:13:41.402Z,1010.73
2018-08-23T00:14:41.369Z,1010.72
2018-08-23T00:15:41.354Z,1010.68
2018-08-23T00:16:41.387Z,1010.69
2018-08-23T00:17:41.325Z,1010.68
2018-08-23T00:18:41.311Z,1010.68
2018-08-23T00:19:41.296Z,1010.63
2018-08-23T00:20:41.283Z,1010.62
2018-08-23T00:21:41.270Z,1010.62
2018-08-23T00:22:41.252Z,1010.64
2018-08-23T00:23:41.242Z,1010.64
2018-08-23T00:24:41.226Z,1010.62
2018-08-23T00:25:41.212Z,1010.65
2018-08-23T00:26:41.196Z,1010.61
2018-08-23T00:27:41.183Z,1010.61
2018-08-23T00:28:41.172Z,1010.60
2018-08-23T00:29:41.153Z,1010.58
2018-08-23T00:30:41.139Z,1010.59
2018-08-23T00:31:41.124Z,1010.61
2018-08-23T00:32:41.113Z,1010.56
2018-08-23T00:33:41.100Z,1010.56
2018-08-23T00:34:41.083Z,1010.56
2018-08-23T00:35:41.067Z,1010.53
2018-08-23T00:36:41.057Z,1010.53
2018-08-23T00:37:41.045Z,1010.52
2018-08-23T00:38:41.025Z,1010.49
2018-08-23T00:39:41.014Z,1010.50
2018-08-23T00:40:40.995Z,1010.45
2018-08-23T00:41:40.980Z,1010.49
2018-08-23T00:42:40.976Z,1010.52
2018-08-23T00:43:40.951Z,1010.53
2018-08-23T00:44:40.942Z,1010.46
2018-08-23T00:45:40.922Z,1010.50
2018-08-23T00:46:40.908Z,1010.49
2018-08-23T00:47:40.895Z,1010.46
2018-08-23T00:48:40.880Z,1010.50
2018-08-23T00:49:40.869Z,1010.46
2018-08-23T00:50:40.850Z,1010.46
2018-08-23T00:51:40.836Z,1010.47
2018-08-23T00:52:40.827Z,1010.46
2018-08-23T00:53:40.807Z,1010.49
2018-08-23T00:54:40.791Z,1010.51
2018-08-23T00:55:40.777Z,1010.51
2018-08-23T00:56:40.763Z,1010.53
2018-08-23T00:57:40.747Z,1010.48
2018-08-23T00:58:40.732Z,1010.54
2018-08-23T00:59:40.726Z,1010.54
2018-08-23T01:00:40.703Z,1010.52
2018-08-23T01:01:40.687Z,1010.50
2018-08-23T01:02:40.675Z,1010.51
2018-08-23T01:03:40.660Z,1010.52
2018-08-23T01:04:40.646Z,1010.49
2018-08-23T01:05:40.631Z,1010.48
2018-08-23T01:06:40.616Z,1010.51
2018-08-23T01:07:40.601Z,1010.51
2018-08-23T01:08:40.585Z,1010.52
2018-08-23T01:09:40.571Z,1010.51
2018-08-23T01:10:40.556Z,1010.53
2018-08-23T01:11:40.541Z,1010.50
2018-08-23T01:12:40.526Z,1010.51
2018-08-23T01:13:40.510Z,1010.52
2018-08-23T01:14:40.497Z,1010.48
2018-08-23T01:15:40.482Z,1010.46
2018-08-23T01:16:40.469Z,1010.43
2018-08-23T01:17:40.453Z,1010.46
2018-08-23T01:18:40.438Z,1010.42
2018-08-23T01:19:40.424Z,1010.42
2018-08-23T01:20:40.415Z,1010.41
2018-08-23T01:21:40.393Z,1010.43
2018-08-23T01:22:40.379Z,1010.44
2018-08-23T01:23:40.363Z,1010.44
2018-08-23T01:24:40.351Z,1010.43
2018-08-23T01:25:40.332Z,1010.40
2018-08-23T01:26:40.316Z,1010.41
2018-08-23T01:27:40.303Z,1010.40
2018-08-23T01:28:40.292Z,1010.42
2018-08-23T01:29:40.276Z,1010.37
2018-08-23T01:30:40.262Z,1010.37
2018-08-23T01:31:40.244Z,1010.37
2018-08-23T01:32:40.232Z,1010.37
2018-08-23T01:33:40.214Z,1010.39
2018-08-23T01:34:40.201Z,1010.36
2018-08-23T01:35:40.188Z,1010.34
2018-08-23T01:36:40.169Z,1010.37
2018-08-23T01:37:40.157Z,1010.36
2018-08-23T01:38:40.139Z,1010.34
2018-08-23T01:39:40.124Z,1010.29
2018-08-23T01:40:40.108Z,1010.27
2018-08-23T01:41:40.096Z,1010.27
2018-08-23T01:42:40.081Z,1010.24
2018-08-23T01:43:40.064Z,1010.24
2018-08-23T01:44:40.049Z,1010.24
2018-08-23T01:45:40.033Z,1010.19
2018-08-23T01:46:40.019Z,1010.20
2018-08-23T01:47:40.004Z,1010.18
2018-08-23T01:48:39.989Z,1010.24
2018-08-23T01:49:39.972Z,1010.21
2018-08-23T01:50:39.957Z,1010.19
2018-08-23T01:51:39.944Z,1010.18
2018-08-23T01:52:39.928Z,1010.19
2018-08-23T01:53:39.912Z,1010.15
2018-08-23T01:54:39.898Z,1010.17
2018-08-23T01:55:39.889Z,1010.17
2018-08-23T01:56:39.867Z,1010.17
2018-08-23T01:57:39.861Z,1010.15
2018-08-23T01:58:39.840Z,1010.12
2018-08-23T01:59:39.822Z,1010.15
2018-08-23T02:00:39.808Z,1010.14
2018-08-23T02:01:39.794Z,1010.13
2018-08-23T02:02:39.777Z,1010.13
2018-08-23T02:03:39.764Z,1010.14
2018-08-23T02:04:39.746Z,1010.14
2018-08-23T02:05:39.732Z,1010.12
2018-08-23T02:06:39.717Z,1010.10
2018-08-23T02:07:39.701Z,1010.12
2018-08-23T02:08:39.688Z,1010.11
2018-08-23T02:09:39.669Z,1010.14
2018-08-23T02:10:39.656Z,1010.09
2018-08-23T02:11:39.641Z,1010.08
2018-08-23T02:12:39.628Z,1010.07
2018-08-23T02:13:39.612Z,1010.08
2018-08-23T02:14:39.596Z,1010.07
2018-08-23T02:15:39.579Z,1010.05
2018-08-23T02:16:39.563Z,1010.05
2018-08-23T02:17:39.548Z,1010.05
2018-08-23T02:18:39.535Z,1010.01
2018-08-23T02:19:39.519Z,1010.02
2018-08-23T02:20:39.505Z,1009.98
2018-08-23T02:21:39.492Z,1009.99
2018-08-23T02:22:39.473Z,1010.02
2018-08-23T02:23:39.460Z,1010.02
2018-08-23T02:24:39.448Z,1009.99
2018-08-23T02:25:39.426Z,1009.99
2018-08-23T02:26:39.413Z,1010.01
2018-08-23T02:27:39.395Z,1009.98
2018-08-23T02:28:39.384Z,1009.99
2018-08-23T02:29:39.375Z,1009.95
2018-08-23T02:30:39.349Z,1009.99
2018-08-23T02:31:39.334Z,1009.96
2018-08-23T02:32:39.318Z,1009.95
2018-08-23T02:33:39.304Z,1009.95
2018-08-23T02:34:39.288Z,1009.92
2018-08-23T02:35:39.273Z,1009.89
2018-08-23T02:36:39.257Z,1009.89
2018-08-23T02:37:39.240Z,1009.91
2018-08-23T02:38:39.227Z,1009.89
2018-08-23T02:39:39.213Z,1009.88
2018-08-23T02:40:39.202Z,1009.89
2018-08-23T02:41:39.181Z,1009.89
2018-08-23T02:42:39.166Z,1009.91
2018-08-23T02:43:39.152Z,1009.89
2018-08-23T02:44:39.142Z,1009.87
2018-08-23T02:45:39.119Z,1009.84
2018-08-23T02:46:39.105Z,1009.86
2018-08-23T02:47:39.089Z,1009.90
2018-08-23T02:48:39.074Z,1009.89
2018-08-23T02:49:39.056Z,1009.85
2018-08-23T02:50:39.041Z,1009.87
2018-08-23T02:51:39.025Z,1009.88
2018-08-23T02:52:39.011Z,1009.85
2018-08-23T02:53:40.411Z,1009.85
2018-08-23T02:54:38.980Z,1009.81
2018-08-23T02:55:38.964Z,1009.83
2018-08-23T02:56:38.953Z,1009.80
2018-08-23T02:57:38.933Z,1009.77
2018-08-23T02:58:38.916Z,1009.79
2018-08-23T02:59:38.904Z,1009.81
2018-08-23T03:00:38.933Z,1009.77
2018-08-23T03:01:38.869Z,1009.84
2018-08-23T03:02:38.855Z,1009.80
2018-08-23T03:03:38.838Z,1009.80
2018-08-23T03:04:38.825Z,1009.81
2018-08-23T03:05:38.808Z,1009.84
2018-08-23T03:06:38.793Z,1009.82
2018-08-23T03:07:38.782Z,1009.84
2018-08-23T03:08:38.762Z,1009.86
2018-08-23T03:09:38.750Z,1009.84
2018-08-23T03:10:38.732Z,1009.84
2018-08-23T03:11:38.723Z,1009.84
2018-08-23T03:12:38.700Z,1009.84
2018-08-23T03:13:38.687Z,1009.82
2018-08-23T03:14:38.668Z,1009.82
2018-08-23T03:15:38.655Z,1009.80
2018-08-23T03:16:38.639Z,1009.87
2018-08-23T03:17:38.623Z,1009.85
2018-08-23T03:18:38.607Z,1009.83
2018-08-23T03:19:38.590Z,1009.83
2018-08-23T03:20:38.578Z,1009.85
2018-08-23T03:21:38.557Z,1009.84
2018-08-23T03:22:38.545Z,1009.80
2018-08-23T03:23:38.527Z,1009.82
2018-08-23T03:24:38.514Z,1009.78
2018-08-23T03:25:38.497Z,1009.77
2018-08-23T03:26:38.481Z,1009.77
2018-08-23T03:27:38.468Z,1009.80
2018-08-23T03:28:38.452Z,1009.76
2018-08-23T03:29:38.436Z,1009.75
2018-08-23T03:30:38.507Z,1009.75
2018-08-23T03:31:38.403Z,1009.73
2018-08-23T03:32:38.388Z,1009.77
2018-08-23T03:33:38.371Z,1009.76
2018-08-23T03:34:38.358Z,1009.77
2018-08-23T03:35:38.345Z,1009.79
2018-08-23T03:36:38.327Z,1009.76
2018-08-23T03:37:38.312Z,1009.77
2018-08-23T03:38:38.294Z,1009.73
2018-08-23T03:39:38.328Z,1009.74
2018-08-23T03:40:38.262Z,1009.77
2018-08-23T03:41:38.246Z,1009.70
2018-08-23T03:42:38.231Z,1009.73
2018-08-23T03:43:38.216Z,1009.70
2018-08-23T03:44:38.201Z,1009.68
2018-08-23T03:45:38.184Z,1009.65
2018-08-23T03:46:38.167Z,1009.69
2018-08-23T03:47:38.153Z,1009.67
2018-08-23T03:48:38.146Z,1009.69
2018-08-23T03:49:38.129Z,1009.69
2018-08-23T03:50:38.107Z,1009.69
2018-08-23T03:51:38.090Z,1009.70
2018-08-23T03:52:38.165Z,1009.68
2018-08-23T03:53:38.058Z,1009.71
2018-08-23T03:54:38.042Z,1009.60
2018-08-23T03:55:38.026Z,1009.67
2018-08-23T03:56:38.011Z,1009.65
2018-08-23T03:57:37.994Z,1009.69
2018-08-23T03:58:37.988Z,1009.68
2018-08-23T03:59:37.963Z,1009.67
2018-08-23T04:00:37.947Z,1009.71
2018-08-23T04:01:37.939Z,1009.73
2018-08-23T04:02:37.915Z,1009.72
2018-08-23T04:03:37.899Z,1009.75
2018-08-23T04:04:37.888Z,1009.76
2018-08-23T04:05:37.871Z,1009.76
2018-08-23T04:06:37.853Z,1009.74
2018-08-23T04:07:37.839Z,1009.73
2018-08-23T04:08:37.822Z,1009.75
2018-08-23T04:09:37.807Z,1009.79
2018-08-23T04:10:37.789Z,1009.76
2018-08-23T04:11:37.774Z,1009.75
2018-08-23T04:12:37.760Z,1009.75
2018-08-23T04:13:37.744Z,1009.74
2018-08-23T04:14:37.725Z,1009.74
2018-08-23T04:15:37.710Z,1009.71
2018-08-23T04:16:37.698Z,1009.73
2018-08-23T04:17:37.678Z,1009.75
2018-08-23T04:18:37.662Z,1009.74
2018-08-23T04:19:37.646Z,1009.80
2018-08-23T04:20:37.631Z,1009.81
2018-08-23T04:21:37.614Z,1009.82
2018-08-23T04:22:37.598Z,1009.82
2018-08-23T04:23:37.583Z,1009.82
2018-08-23T04:24:37.568Z,1009.85
2018-08-23T04:25:37.553Z,1009.82
2018-08-23T04:26:37.539Z,1009.84
2018-08-23T04:27:37.519Z,1009.78
2018-08-23T04:28:37.509Z,1009.77
2018-08-23T04:29:37.492Z,1009.78
2018-08-23T04:30:37.471Z,1009.77
2018-08-23T04:31:37.458Z,1009.73
2018-08-23T04:32:37.440Z,1009.77
2018-08-23T04:33:37.424Z,1009.78
2018-08-23T04:34:37.408Z,1009.77
2018-08-23T04:35:37.396Z,1009.77
2018-08-23T04:36:37.381Z,1009.78
2018-08-23T04:37:37.364Z,1009.81
2018-08-23T04:38:37.347Z,1009.78
2018-08-23T04:39:37.334Z,1009.79
2018-08-23T04:40:37.318Z,1009.80
2018-08-23T04:41:37.299Z,1009.81
2018-08-23T04:42:37.284Z,1009.78
2018-08-23T04:43:37.268Z,1009.76
2018-08-23T04:44:37.251Z,1009.76
2018-08-23T04:45:37.236Z,1009.76
2018-08-23T04:46:37.220Z,1009.77
2018-08-23T04:47:37.203Z,1009.78
2018-08-23T04:48:37.191Z,1009.78
2018-08-23T04:49:37.172Z,1009.74
2018-08-23T04:50:37.159Z,1009.76
2018-08-23T04:51:37.169Z,1009.76
2018-08-23T04:52:37.125Z,1009.73
2018-08-23T04:53:37.137Z,1009.80
2018-08-23T04:54:37.098Z,1009.75
2018-08-23T04:55:37.079Z,1009.72
2018-08-23T04:56:37.064Z,1009.71
2018-08-23T04:57:37.047Z,1009.71
2018-08-23T04:58:37.031Z,1009.72
2018-08-23T04:59:37.016Z,1009.68
2018-08-23T05:00:36.999Z,1009.72
2018-08-23T05:01:36.991Z,1009.72
2018-08-23T05:02:36.972Z,1009.71
2018-08-23T05:03:36.951Z,1009.67
2018-08-23T05:04:36.940Z,1009.67
2018-08-23T05:05:36.926Z,1009.70
2018-08-23T05:06:36.904Z,1009.65
2018-08-23T05:07:36.894Z,1009.63
2018-08-23T05:08:36.875Z,1009.66
2018-08-23T05:09:36.862Z,1009.67
2018-08-23T05:10:36.845Z,1009.63
2018-08-23T05:11:36.827Z,1009.59
2018-08-23T05:12:36.820Z,1009.61
2018-08-23T05:13:36.795Z,1009.58
2018-08-23T05:14:36.782Z,1009.61
2018-08-23T05:15:36.765Z,1009.56
2018-08-23T05:16:36.750Z,1009.55
2018-08-23T05:17:36.734Z,1009.58
2018-08-23T05:18:36.719Z,1009.56
2018-08-23T05:19:36.703Z,1009.59
2018-08-23T05:20:36.687Z,1009.59
2018-08-23T05:21:36.674Z,1009.59
2018-08-23T05:22:36.657Z,1009.56
2018-08-23T05:23:36.646Z,1009.56
2018-08-23T05:24:36.627Z,1009.55
2018-08-23T05:25:36.620Z,1009.56
2018-08-23T05:26:36.599Z,1009.54
2018-08-23T05:27:36.581Z,1009.54
2018-08-23T05:28:36.563Z,1009.57
2018-08-23T05:29:36.553Z,1009.54
2018-08-23T05:30:36.534Z,1009.51
2018-08-23T05:31:36.521Z,1009.52
2018-08-23T05:32:36.505Z,1009.53
2018-08-23T05:33:36.487Z,1009.51
2018-08-23T05:34:36.472Z,1009.51
2018-08-23T05:35:36.458Z,1009.49
2018-08-23T05:36:36.445Z,1009.52
2018-08-23T05:37:36.437Z,1009.50
2018-08-23T05:38:36.410Z,1009.49
2018-08-23T05:39:36.401Z,1009.48
2018-08-23T05:40:36.383Z,1009.52
2018-08-23T05:41:36.368Z,1009.49
2018-08-23T05:42:36.354Z,1009.53
2018-08-23T05:43:36.337Z,1009.53
2018-08-23T05:44:36.321Z,1009.54
2018-08-23T05:45:36.307Z,1009.49
2018-08-23T05:46:36.290Z,1009.47
2018-08-23T05:47:36.329Z,1009.47
2018-08-23T05:48:36.260Z,1009.49
2018-08-23T05:49:36.244Z,1009.44
2018-08-23T05:50:36.235Z,1009.44
2018-08-23T05:51:36.214Z,1009.46
2018-08-23T05:52:36.202Z,1009.46
2018-08-23T05:53:36.192Z,1009.42
2018-08-23T05:54:36.174Z,1009.46
2018-08-23T05:55:36.159Z,1009.43
2018-08-23T05:56:36.140Z,1009.45
2018-08-23T05:57:36.125Z,1009.48
2018-08-23T05:58:36.115Z,1009.47
2018-08-23T05:59:36.099Z,1009.47
2018-08-23T06:00:36.081Z,1009.47
2018-08-23T06:01:36.065Z,1009.48
2018-08-23T06:02:36.080Z,1009.44
2018-08-23T06:03:36.045Z,1009.45
2018-08-23T06:04:36.030Z,1009.42
2018-08-23T06:05:36.008Z,1009.41
2018-08-23T06:06:35.992Z,1009.42
2018-08-23T06:07:35.978Z,1009.40
2018-08-23T06:08:35.963Z,1009.38
2018-08-23T06:09:35.949Z,1009.35
2018-08-23T06:10:35.933Z,1009.34
2018-08-23T06:11:35.924Z,1009.35
2018-08-23T06:12:35.904Z,1009.37
2018-08-23T06:13:35.894Z,1009.38
2018-08-23T06:14:35.874Z,1009.36
2018-08-23T06:15:35.863Z,1009.39
2018-08-23T06:16:35.855Z,1009.35
2018-08-23T06:17:35.831Z,1009.37
2018-08-23T06:18:35.822Z,1009.38
2018-08-23T06:19:35.812Z,1009.36
2018-08-23T06:20:35.790Z,1009.37
2018-08-23T06:21:35.777Z,1009.35
2018-08-23T06:22:35.759Z,1009.39
2018-08-23T06:23:35.744Z,1009.35
2018-08-23T06:24:35.730Z,1009.40
2018-08-23T06:25:35.716Z,1009.40
2018-08-23T06:26:35.701Z,1009.38
2018-08-23T06:27:35.699Z,1009.41
2018-08-23T06:28:35.677Z,1009.35
2018-08-23T06:29:35.659Z,1009.37
2018-08-23T06:30:35.645Z,1009.30
2018-08-23T06:31:35.631Z,1009.33
2018-08-23T06:32:35.618Z,1009.32
2018-08-23T06:33:35.771Z,1009.30
2018-08-23T06:34:35.589Z,1009.27
2018-08-23T06:35:35.620Z,1009.25
2018-08-23T06:36:35.562Z,1009.26
2018-08-23T06:37:35.559Z,1009.26
2018-08-23T06:38:35.553Z,1009.24
2018-08-23T06:39:35.519Z,1009.20
2018-08-23T06:40:35.508Z,1009.23
2018-08-23T06:41:35.494Z,1009.23
2018-08-23T06:42:35.479Z,1009.23
2018-08-23T06:43:35.467Z,1009.22
2018-08-23T06:44:35.494Z,1009.24
2018-08-23T06:45:35.439Z,1009.27
2018-08-23T06:46:35.424Z,1009.26
2018-08-23T06:47:35.615Z,1009.29
2018-08-23T06:48:35.399Z,1009.27
2018-08-23T06:49:35.388Z,1009.27
2018-08-23T06:50:35.372Z,1009.28
2018-08-23T06:51:35.359Z,1009.30
2018-08-23T06:52:35.354Z,1009.29
2018-08-23T06:53:35.334Z,1009.28
2018-08-23T06:54:37.940Z,1009.27
2018-08-23T06:55:35.307Z,1009.29
2018-08-23T06:56:35.293Z,1009.30
2018-08-23T06:57:35.279Z,1009.36
2018-08-23T06:58:35.266Z,1009.28
2018-08-23T06:59:35.253Z,1009.30
2018-08-23T07:00:35.241Z,1009.29
2018-08-23T07:01:35.226Z,1009.35
2018-08-23T07:02:35.214Z,1009.82
2018-08-23T07:03:35.205Z,1009.69
2018-08-23T07:04:35.190Z,1009.26
2018-08-23T07:05:35.274Z,1009.54
2018-08-23T07:06:35.224Z,1010.12
2018-08-23T07:07:35.154Z,1010.40
2018-08-23T07:08:35.141Z,1011.16
2018-08-23T07:09:35.125Z,1010.74
2018-08-23T07:10:35.134Z,1009.64
2018-08-23T07:11:35.165Z,1011.82
2018-08-23T07:12:35.093Z,1015.44
2018-08-23T07:13:35.082Z,1016.87
2018-08-23T07:14:35.070Z,1017.90
2018-08-23T07:15:35.057Z,1018.09
2018-08-23T07:16:35.045Z,1018.19
2018-08-23T07:17:35.095Z,1018.51
2018-08-23T07:18:35.026Z,1019.46
2018-08-23T07:19:35.015Z,1020.61
2018-08-23T07:20:35.002Z,1021.08
2018-08-23T07:21:34.992Z,1021.41
2018-08-23T07:22:35.043Z,1022.18
2018-08-23T07:23:34.972Z,1022.68
2018-08-23T07:24:34.968Z,1023.08
2018-08-23T07:25:34.955Z,1022.62
2018-08-23T07:26:34.965Z,1022.20
2018-08-23T07:27:34.936Z,1021.92
2018-08-23T07:28:34.930Z,1022.12
2018-08-23T07:29:34.917Z,1022.35
2018-08-23T07:30:34.914Z,1023.51
2018-08-23T07:31:34.912Z,1024.66
2018-08-23T07:32:34.897Z,1025.14
2018-08-23T07:33:34.884Z,1025.64
2018-08-23T07:34:34.876Z,1025.66
2018-08-23T07:35:34.869Z,1025.01
2018-08-23T07:36:34.863Z,1024.84
2018-08-23T07:37:34.863Z,1024.99
2018-08-23T07:38:34.857Z,1025.55
2018-08-23T07:39:34.840Z,1026.01
2018-08-23T07:40:34.845Z,1025.99
2018-08-23T07:41:34.825Z,1025.66
2018-08-23T07:42:34.822Z,1024.72
2018-08-23T07:43:34.812Z,1023.97
2018-08-23T07:44:34.806Z,1024.21
2018-08-23T07:45:34.799Z,1025.33
2018-08-23T07:46:34.792Z,1025.09
2018-08-23T07:47:34.789Z,1025.16
2018-08-23T07:48:34.861Z,1025.74
2018-08-23T07:49:34.776Z,1026.33
2018-08-23T07:50:34.771Z,1026.12
2018-08-23T07:51:34.765Z,1025.65
2018-08-23T07:52:34.783Z,1025.02
2018-08-23T07:53:34.755Z,1025.29
2018-08-23T07:54:34.762Z,1026.89
2018-08-23T07:55:34.743Z,1028.15
2018-08-23T07:56:34.738Z,1027.22
2018-08-23T07:57:34.730Z,1024.20
2018-08-23T07:58:34.727Z,1023.43
2018-08-23T07:59:34.722Z,1024.59
2018-08-23T08:00:34.720Z,1026.56
2018-08-23T08:01:34.723Z,1028.20
2018-08-23T08:02:34.713Z,1028.78
2018-08-23T08:03:34.702Z,1027.95
2018-08-23T08:04:34.700Z,1026.62
2018-08-23T08:05:34.711Z,1025.49
2018-08-23T08:06:34.691Z,1024.84
2018-08-23T08:07:34.685Z,1024.88
2018-08-23T08:08:34.685Z,1025.69
2018-08-23T08:09:37.363Z,1026.49
2018-08-23T08:10:34.678Z,1026.36
2018-08-23T08:11:34.668Z,1026.45
2018-08-23T08:12:34.665Z,1026.65
2018-08-23T08:13:34.659Z,1026.10
2018-08-23T08:14:34.654Z,1025.70
2018-08-23T08:15:34.655Z,1024.94
2018-08-23T08:16:34.646Z,1023.63
2018-08-23T08:17:34.641Z,1022.77
2018-08-23T08:18:34.640Z,1022.78
2018-08-23T08:19:34.637Z,1022.05
2018-08-23T08:20:34.637Z,1020.13
2018-08-23T08:21:34.675Z,1018.18
2018-08-23T08:22:34.624Z,1017.28
2018-08-23T08:23:34.619Z,1018.01
2018-08-23T08:24:34.616Z,1018.57
2018-08-23T08:25:34.615Z,1017.69
2018-08-23T08:26:34.611Z,1017.54
2018-08-23T08:27:34.613Z,1018.54
2018-08-23T08:28:34.605Z,1009.37
2018-08-23T08:29:34.597Z,1009.39
2018-08-23T08:30:34.596Z,1009.33
2018-08-23T08:31:34.600Z,1009.31
2018-08-23T08:32:34.588Z,1009.32
2018-08-23T08:33:34.586Z,1009.37
2018-08-23T08:34:34.580Z,1009.31
2018-08-23T08:35:34.575Z,1009.33
2018-08-23T08:36:34.574Z,1009.28
2018-08-23T08:37:34.568Z,1009.26
2018-08-23T08:38:34.562Z,1009.25
2018-08-23T08:39:34.561Z,1009.26
2018-08-23T08:40:34.556Z,1009.14
2018-08-23T08:41:34.552Z,1009.22
2018-08-23T08:42:34.556Z,1009.25
2018-08-23T08:43:34.594Z,1009.18
2018-08-23T08:44:34.539Z,1009.19
2018-08-23T08:45:34.542Z,1009.19
2018-08-23T08:46:34.536Z,1009.15
2018-08-23T08:47:34.527Z,1009.16
2018-08-23T08:48:34.521Z,1009.09
2018-08-23T08:49:34.515Z,1009.11
2018-08-23T08:50:34.591Z,1009.11
2018-08-23T08:51:34.506Z,1009.03
2018-08-23T08:52:34.501Z,1009.06
2018-08-23T08:53:34.496Z,1009.03
2018-08-23T08:54:34.493Z,1009.04
2018-08-23T08:55:34.488Z,1009.03
2018-08-23T08:56:34.490Z,1009.00
2018-08-23T08:57:34.508Z,1008.99
2018-08-23T08:58:34.475Z,1008.99
2018-08-23T08:59:34.475Z,1008.97
2018-08-23T09:00:34.466Z,1008.98
2018-08-23T09:01:34.469Z,1008.95
2018-08-23T09:02:34.453Z,1008.94
2018-08-23T09:03:34.449Z,1008.92
2018-08-23T09:04:34.446Z,1008.86
2018-08-23T09:05:34.434Z,1008.84
2018-08-23T09:06:34.433Z,1008.85
2018-08-23T09:07:34.429Z,1008.87
2018-08-23T09:08:34.424Z,1008.87
2018-08-23T09:09:34.414Z,1008.79
2018-08-23T09:10:34.409Z,1008.77
2018-08-23T09:11:34.408Z,1008.81
2018-08-23T09:12:34.399Z,1008.79
2018-08-23T09:13:34.393Z,1008.79
2018-08-23T09:14:34.389Z,1008.76
2018-08-23T09:16:16.918Z,1008.75
2018-08-23T09:17:16.912Z,1008.75
2018-08-23T09:18:16.912Z,1008.71
2018-08-23T09:19:16.901Z,1008.73
2018-08-23T09:20:16.894Z,1008.72
2018-08-23T09:21:16.889Z,1008.74
2018-08-23T09:22:16.884Z,1008.73
2018-08-23T09:23:16.880Z,1008.70
2018-08-23T09:24:16.872Z,1008.66
2018-08-23T09:25:16.896Z,1008.66
2018-08-23T09:26:16.861Z,1008.70
2018-08-23T09:27:16.941Z,1008.66
2018-08-23T09:28:16.856Z,1008.68
2018-08-23T09:29:16.842Z,1008.61
2018-08-23T09:30:16.837Z,1008.61
2018-08-23T09:31:16.831Z,1008.56
2018-08-23T09:32:16.830Z,1008.58
2018-08-23T09:33:16.820Z,1008.55
2018-08-23T09:34:16.815Z,1008.56
2018-08-23T09:35:16.808Z,1008.53
2018-08-23T09:36:16.803Z,1008.49
2018-08-23T09:37:16.806Z,1008.50
2018-08-23T09:38:16.791Z,1008.48
2018-08-23T09:39:16.783Z,1008.51
2018-08-23T09:40:16.778Z,1008.49
2018-08-23T09:41:16.773Z,1008.56
2018-08-23T09:42:16.767Z,1008.51
2018-08-23T09:43:16.761Z,1008.46
2018-08-23T09:44:16.759Z,1008.39
2018-08-23T09:45:16.756Z,1008.40
2018-08-23T09:46:16.759Z,1008.35
2018-08-23T09:47:16.740Z,1008.34
2018-08-23T09:48:16.733Z,1008.33
2018-08-23T09:49:16.723Z,1008.36
2018-08-23T09:50:16.861Z,1008.35
2018-08-23T09:51:16.783Z,1008.34
2018-08-23T09:52:16.734Z,1008.31
2018-08-23T09:53:16.701Z,1008.35
2018-08-23T09:54:16.695Z,1008.29
2018-08-23T09:55:16.689Z,1008.29
2018-08-23T09:56:16.683Z,1008.31
2018-08-23T09:57:16.678Z,1008.26
2018-08-23T09:58:16.680Z,1008.61
2018-08-23T09:59:16.664Z,1008.61
2018-08-23T10:00:16.658Z,1008.59
2018-08-23T10:01:16.654Z,1008.56
2018-08-23T10:02:16.649Z,1008.52
2018-08-23T10:03:16.642Z,1008.52
2018-08-23T10:04:16.717Z,1008.53
2018-08-23T10:05:16.633Z,1008.51
2018-08-23T10:06:16.626Z,1008.49
2018-08-23T10:07:16.626Z,1008.54
2018-08-23T10:08:16.662Z,1008.47
2018-08-23T10:09:16.617Z,1008.44
2018-08-23T10:10:16.606Z,1008.46
2018-08-23T10:11:16.621Z,1008.50
2018-08-23T10:12:16.595Z,1008.43
2018-08-23T10:13:16.590Z,1008.45
2018-08-23T10:14:16.585Z,1008.47
2018-08-23T10:15:16.590Z,1008.45
2018-08-23T10:16:16.579Z,1008.46
2018-08-23T10:17:16.572Z,1008.43
2018-08-23T10:18:16.577Z,1008.47
2018-08-23T10:19:16.564Z,1008.44
2018-08-23T10:20:16.565Z,1008.45
2018-08-23T10:21:16.554Z,1008.45
2018-08-23T10:22:16.552Z,1008.38
2018-08-23T10:23:16.549Z,1008.42
2018-08-23T10:24:16.542Z,1008.50
2018-08-23T10:25:16.543Z,1008.50
2018-08-23T10:26:16.536Z,1008.44
2018-08-23T10:27:16.535Z,1008.38
2018-08-23T10:28:16.531Z,1008.32
2018-08-23T10:29:16.523Z,1008.30
2018-08-23T10:30:16.521Z,1008.34
2018-08-23T10:31:16.516Z,1008.33
2018-08-23T10:32:16.613Z,1008.24
2018-08-23T10:33:16.512Z,1008.29
2018-08-23T10:34:16.510Z,1008.27
2018-08-23T10:35:16.505Z,1008.27
2018-08-23T10:36:16.510Z,1008.21
2018-08-23T10:37:16.504Z,1008.25
2018-08-23T10:38:16.572Z,1008.29
2018-08-23T10:39:16.498Z,1008.29
2018-08-23T10:40:16.495Z,1008.25
2018-08-23T10:41:16.491Z,1008.23
2018-08-23T10:42:16.488Z,1008.25
2018-08-23T10:43:16.488Z,1008.27
2018-08-23T10:44:16.489Z,1008.33
2018-08-23T10:45:16.482Z,1008.26
2018-08-23T10:46:16.480Z,1008.18
2018-08-23T10:47:16.797Z,1008.16
2018-08-23T10:48:16.475Z,1008.09
2018-08-23T10:49:16.475Z,1008.01
2018-08-23T10:50:16.475Z,1007.99
2018-08-23T10:51:16.469Z,1008.17
2018-08-23T10:52:16.467Z,1008.09
2018-08-23T10:53:16.466Z,1008.06
2018-08-23T10:54:16.464Z,1008.06
2018-08-23T10:55:16.462Z,1008.02
2018-08-23T10:56:16.460Z,1008.09
2018-08-23T10:57:16.462Z,1008.02
2018-08-23T10:58:16.457Z,1008.04
2018-08-23T10:59:16.464Z,1008.11
2018-08-23T11:00:16.458Z,1008.00
2018-08-23T11:01:16.453Z,1008.06
2018-08-23T11:02:16.453Z,1008.07
2018-08-23T11:03:16.450Z,1008.06
2018-08-23T11:04:16.451Z,1008.09
2018-08-23T11:05:16.450Z,1008.02
2018-08-23T11:07:16.469Z,1007.96
2018-08-23T11:08:16.448Z,1007.99
2018-08-23T11:09:16.447Z,1007.93
2018-08-23T11:10:16.446Z,1007.90
2018-08-23T11:11:16.451Z,1007.96
2018-08-23T11:12:16.445Z,1007.98
2018-08-23T11:13:16.461Z,1008.03
2018-08-23T11:14:16.445Z,1007.98
2018-08-23T11:15:16.443Z,1007.95
2018-08-23T11:16:16.447Z,1007.94
2018-08-23T11:17:16.567Z,1007.92
2018-08-23T11:18:16.443Z,1007.91
2018-08-23T11:19:16.447Z,1007.91
2018-08-23T11:20:16.444Z,1007.87
2018-08-23T11:21:16.443Z,1007.86
2018-08-23T11:22:16.445Z,1007.90
2018-08-23T11:23:16.444Z,1007.86
2018-08-23T11:24:16.448Z,1007.85
2018-08-23T11:25:16.446Z,1007.82
2018-08-23T11:26:16.447Z,1007.75
2018-08-23T11:27:16.445Z,1007.80
2018-08-23T11:28:16.447Z,1007.74
2018-08-23T11:29:16.448Z,1007.76
2018-08-23T11:30:16.450Z,1007.79
2018-08-23T11:31:16.448Z,1007.90
2018-08-23T11:32:16.452Z,1007.75
2018-08-23T11:33:16.452Z,1007.89
2018-08-23T11:34:16.454Z,1008.00
2018-08-23T11:35:16.557Z,1007.98
2018-08-23T11:36:16.458Z,1007.98
2018-08-23T11:37:16.455Z,1008.01
2018-08-23T11:38:16.457Z,1008.02
2018-08-23T11:39:16.458Z,1007.60
2018-08-23T11:40:16.462Z,1008.04
2018-08-23T11:41:16.462Z,1007.86
2018-08-23T11:42:16.462Z,1007.88
2018-08-23T11:43:16.464Z,1007.94
2018-08-23T11:44:16.465Z,1007.89
2018-08-23T11:45:16.469Z,1007.86
2018-08-23T11:46:16.468Z,1007.95
2018-08-23T11:47:16.468Z,1007.77
2018-08-23T11:48:16.471Z,1007.84
2018-08-23T11:49:16.475Z,1007.80
2018-08-23T11:50:16.475Z,1007.71
2018-08-23T11:51:16.473Z,1007.73
2018-08-23T11:52:16.479Z,1007.68
2018-08-23T11:53:16.650Z,1007.62
2018-08-23T11:54:16.479Z,1007.67
2018-08-23T11:55:16.479Z,1007.52
2018-08-23T11:56:16.482Z,1007.54
2018-08-23T11:57:16.485Z,1007.53
2018-08-23T11:58:16.484Z,1007.36
2018-08-23T11:59:16.586Z,1007.29
2018-08-23T12:00:16.497Z,1007.20
2018-08-23T12:01:16.489Z,1007.37
2018-08-23T12:02:16.488Z,1007.28
2018-08-23T12:03:16.494Z,1007.25
2018-08-23T12:04:16.496Z,1007.18
2018-08-23T12:05:16.492Z,1007.45
2018-08-23T12:06:16.499Z,1007.16
2018-08-23T12:07:16.495Z,1007.39